createdAt,value
2023-02-07T00:00:08.402Z,91.90
2023-02-07T00:03:03.435Z,89.00
2023-02-07T00:05:37.109Z,81.00
2023-02-07T00:08:09.404Z,84.60
2023-02-07T00:10:40.333Z,80.90
2023-02-07T00:13:11.371Z,91.50
2023-02-07T00:15:42.515Z,84.40
2023-02-07T00:18:13.091Z,77.30
2023-02-07T00:20:43.891Z,70.30
2023-02-07T00:23:14.814Z,73.20
2023-02-07T00:25:48.312Z,81.30
2023-02-07T00:28:19.254Z,84.10
2023-02-07T00:30:50.660Z,75.80
2023-02-07T00:33:21.645Z,73.60
2023-02-07T00:35:57.916Z,77.80
2023-02-07T00:38:28.953Z,75.90
2023-02-07T00:41:01.902Z,80.00
2023-02-07T00:43:33.050Z,75.90
2023-02-07T00:46:07.084Z,74.20
2023-02-07T00:48:39.519Z,82.60
2023-02-07T00:51:14.491Z,84.40
2023-02-07T00:53:45.219Z,88.90
2023-02-07T00:56:16.988Z,87.10
2023-02-07T00:58:49.507Z,93.00
2023-02-07T01:01:22.144Z,78.40
2023-02-07T01:03:52.987Z,80.00
2023-02-07T01:06:23.905Z,92.40
2023-02-07T01:09:00.285Z,86.50
2023-02-07T01:11:32.868Z,88.60
2023-02-07T01:14:04.005Z,84.10
2023-02-07T01:16:36.146Z,81.70
2023-02-07T01:19:08.044Z,82.10
2023-02-07T01:21:39.526Z,83.60
2023-02-07T01:24:10.824Z,81.00
2023-02-07T01:26:42.021Z,82.90
2023-02-07T01:29:15.664Z,80.20
2023-02-07T01:31:46.938Z,78.70
2023-02-07T01:34:18.048Z,79.80
2023-02-07T01:36:50.945Z,75.00
2023-02-07T01:39:21.462Z,78.30
2023-02-07T01:41:52.811Z,77.10
2023-02-07T01:44:42.490Z,75.50
2023-02-07T01:47:18.063Z,81.30
2023-02-07T01:49:49.619Z,84.60
2023-02-07T01:52:23.556Z,82.90
2023-02-07T01:54:58.687Z,80.10
2023-02-07T01:57:30.279Z,79.60
2023-02-07T02:00:02.748Z,79.20
2023-02-07T02:02:36.440Z,78.60
2023-02-07T02:05:08.373Z,76.00
2023-02-07T02:07:40.853Z,81.70
2023-02-07T02:10:16.689Z,75.40
2023-02-07T02:12:54.484Z,77.00
2023-02-07T02:15:31.825Z,76.60
2023-02-07T02:18:14.986Z,74.50
2023-02-07T02:21:05.250Z,78.90
2023-02-07T02:23:41.465Z,79.00
2023-02-07T02:26:28.314Z,77.90
2023-02-07T02:29:22.861Z,80.00
2023-02-07T02:32:15.164Z,75.20
2023-02-07T02:34:48.390Z,71.90
2023-02-07T02:37:24.650Z,80.50
2023-02-07T02:40:04.045Z,81.80
2023-02-07T02:42:36.507Z,76.80
2023-02-07T02:45:12.326Z,79.00
2023-02-07T02:47:46.031Z,79.80
2023-02-07T02:50:19.777Z,79.20
2023-02-07T02:52:52.569Z,75.30
2023-02-07T02:55:38.467Z,81.70
2023-02-07T02:58:12.472Z,77.80
2023-02-07T03:00:49.980Z,80.50
2023-02-07T03:03:28.275Z,75.30
2023-02-07T03:06:07.023Z,76.90
2023-02-07T03:08:42.431Z,76.20
2023-02-07T03:11:15.045Z,78.70
2023-02-07T03:13:51.984Z,77.90
2023-02-07T03:16:24.044Z,71.10
2023-02-07T03:18:58.788Z,76.30
2023-02-07T03:21:31.765Z,77.10
2023-02-07T03:24:04.529Z,80.80
2023-02-07T03:26:39.565Z,75.40
2023-02-07T03:29:11.673Z,76.00
2023-02-07T03:31:44.014Z,64.40
2023-02-07T03:34:17.190Z,80.50
2023-02-07T03:39:18.061Z,82.30
2023-02-07T03:41:54.060Z,70.00
2023-02-07T03:44:26.018Z,77.20
2023-02-07T03:46:56.906Z,73.10
2023-02-07T03:49:28.143Z,81.30
2023-02-07T03:51:58.978Z,79.90
2023-02-07T03:54:30.728Z,73.10
2023-02-07T03:57:01.567Z,77.00
2023-02-07T03:59:32.284Z,78.90
2023-02-07T04:02:04.699Z,68.90
2023-02-07T04:04:35.821Z,73.10
2023-02-07T04:07:06.671Z,77.40
2023-02-07T04:09:37.429Z,78.50
2023-02-07T04:12:08.797Z,73.30
2023-02-07T04:14:39.813Z,72.80
2023-02-07T04:17:10.663Z,76.90
2023-02-07T04:19:41.445Z,77.20
2023-02-07T04:22:12.491Z,74.60
2023-02-07T04:24:43.314Z,80.30
2023-02-07T04:27:14.365Z,72.60
2023-02-07T04:29:45.203Z,78.50
2023-02-07T04:32:16.032Z,74.30
2023-02-07T04:34:47.084Z,80.00
2023-02-07T04:37:17.801Z,71.50
2023-02-07T04:39:48.647Z,79.40
2023-02-07T04:42:19.588Z,74.10
2023-02-07T04:44:50.558Z,74.90
2023-02-07T04:47:21.346Z,75.30
2023-02-07T04:49:52.388Z,75.70
2023-02-07T04:52:23.231Z,80.90
2023-02-07T04:54:54.112Z,82.90
2023-02-07T04:57:24.947Z,80.50
2023-02-07T04:59:55.945Z,79.90
2023-02-07T05:02:26.925Z,79.50
2023-02-07T05:04:58.021Z,84.50
2023-02-07T05:07:29.055Z,80.50
2023-02-07T05:10:00.013Z,71.00
2023-02-07T05:12:30.832Z,73.80
2023-02-07T05:15:01.900Z,83.40
2023-02-07T05:17:35.210Z,76.20
2023-02-07T05:20:06.922Z,76.30
2023-02-07T05:22:38.071Z,73.50
2023-02-07T05:25:09.561Z,80.90
2023-02-07T05:27:40.671Z,76.00
2023-02-07T05:30:13.360Z,73.90
2023-02-07T05:33:01.788Z,72.20
2023-02-07T05:35:32.775Z,74.00
2023-02-07T05:38:04.928Z,74.50
2023-02-07T05:40:36.611Z,68.70
2023-02-07T05:43:07.689Z,72.70
2023-02-07T05:45:39.339Z,69.80
2023-02-07T05:48:10.482Z,68.50
2023-02-07T05:50:41.540Z,71.50
2023-02-07T05:53:13.276Z,63.30
2023-02-07T05:55:45.240Z,66.50
2023-02-07T05:58:16.280Z,70.20
2023-02-07T06:00:50.091Z,67.60
2023-02-07T06:03:21.182Z,73.40
2023-02-07T06:05:52.064Z,72.50
2023-02-07T06:08:24.282Z,71.10
2023-02-07T06:10:55.063Z,69.40
2023-02-07T06:13:26.112Z,69.30
2023-02-07T06:15:56.939Z,67.80
2023-02-07T06:18:28.399Z,65.50
2023-02-07T06:20:59.224Z,66.40
2023-02-07T06:23:30.416Z,72.50
2023-02-07T06:26:01.213Z,70.40
2023-02-07T06:28:32.448Z,73.00
2023-02-07T06:31:03.578Z,72.10
2023-02-07T06:33:34.841Z,70.90
2023-02-07T06:36:06.715Z,70.10
2023-02-07T06:38:38.090Z,74.80
2023-02-07T06:41:11.847Z,77.30
2023-02-07T06:43:42.582Z,72.40
2023-02-07T06:46:13.511Z,73.50
2023-02-07T06:48:44.929Z,67.80
2023-02-07T06:51:16.193Z,73.70
2023-02-07T06:53:47.050Z,60.90
2023-02-07T06:56:18.736Z,60.60
2023-02-07T06:58:50.565Z,60.90
2023-02-07T07:01:22.710Z,77.30
2023-02-07T07:03:53.918Z,67.90
2023-02-07T07:06:25.131Z,59.50
2023-02-07T07:08:56.381Z,64.20
2023-02-07T07:11:27.305Z,62.80
2023-02-07T07:13:58.455Z,67.20
2023-02-07T07:16:28.923Z,60.10
2023-02-07T07:19:00.223Z,77.00
2023-02-07T07:21:31.060Z,59.70
2023-02-07T07:24:02.008Z,62.60
2023-02-07T07:26:47.900Z,69.00
2023-02-07T07:29:21.025Z,58.00
2023-02-07T07:31:51.683Z,62.30
2023-02-07T07:34:23.013Z,60.80
2023-02-07T07:36:56.899Z,58.50
2023-02-07T07:39:27.956Z,72.70
2023-02-07T07:41:58.684Z,62.10
2023-02-07T07:44:40.433Z,68.10
2023-02-07T07:47:11.159Z,68.10
2023-02-07T07:49:42.236Z,73.10
2023-02-07T07:52:13.230Z,64.20
2023-02-07T07:54:44.657Z,71.80
2023-02-07T07:57:15.529Z,72.90
2023-02-07T07:59:46.811Z,66.50
2023-02-07T08:02:17.905Z,68.10
2023-02-07T08:04:49.464Z,69.00
2023-02-07T08:07:19.992Z,63.60
2023-02-07T08:09:51.536Z,69.60
2023-02-07T08:12:22.278Z,66.10
2023-02-07T08:14:53.416Z,70.30
2023-02-07T08:17:25.841Z,70.20
2023-02-07T08:19:56.684Z,66.20
2023-02-07T08:22:27.511Z,67.50
2023-02-07T08:24:58.601Z,57.90
2023-02-07T08:27:29.521Z,64.20
2023-02-07T08:30:00.416Z,63.10
2023-02-07T08:32:31.112Z,63.60
2023-02-07T08:35:02.249Z,67.40
2023-02-07T08:37:33.005Z,65.50
2023-02-07T08:40:04.902Z,63.10
2023-02-07T08:42:35.974Z,58.90
2023-02-07T08:45:07.416Z,65.70
2023-02-07T08:47:38.767Z,62.30
2023-02-07T08:50:11.139Z,52.80
2023-02-07T08:52:42.102Z,63.50
2023-02-07T08:55:13.447Z,59.90
2023-02-07T08:57:44.088Z,59.70
2023-02-07T09:00:17.202Z,59.60
2023-02-07T09:02:48.037Z,55.30
2023-02-07T09:05:19.359Z,56.40
2023-02-07T09:07:50.175Z,50.10
2023-02-07T09:10:22.260Z,58.40
2023-02-07T09:12:52.894Z,58.00
2023-02-07T09:15:23.812Z,55.30
2023-02-07T09:17:54.696Z,53.80
2023-02-07T09:20:26.218Z,55.40
2023-02-07T09:23:14.546Z,57.50
2023-02-07T09:25:46.078Z,54.40
2023-02-07T09:28:17.390Z,59.00
2023-02-07T09:30:50.002Z,58.60
2023-02-07T09:33:23.457Z,55.40
2023-02-07T09:35:55.421Z,56.30
2023-02-07T09:38:27.035Z,59.60
2023-02-07T09:40:59.505Z,56.10
2023-02-07T09:43:38.557Z,58.90
2023-02-07T09:46:14.087Z,53.00
2023-02-07T09:48:48.791Z,56.10
2023-02-07T09:51:20.890Z,58.80
2023-02-07T09:53:54.622Z,57.50
2023-02-07T09:56:27.517Z,53.40
2023-02-07T09:59:02.348Z,55.50
2023-02-07T10:01:36.040Z,54.60
2023-02-07T10:04:29.477Z,59.30
2023-02-07T10:07:01.825Z,50.60
2023-02-07T10:09:33.855Z,63.60
2023-02-07T10:12:08.113Z,54.40
2023-02-07T10:14:43.959Z,56.70
2023-02-07T10:17:31.408Z,54.90
2023-02-07T10:20:07.552Z,49.50
2023-02-07T10:22:41.493Z,52.80
2023-02-07T10:25:24.262Z,55.30
2023-02-07T10:28:03.490Z,47.50
2023-02-07T10:30:36.419Z,49.90
2023-02-07T10:33:13.604Z,52.20
2023-02-07T10:35:45.538Z,54.00
2023-02-07T10:38:22.824Z,45.90
2023-02-07T10:40:57.408Z,42.60
2023-02-07T10:43:30.306Z,45.70
2023-02-07T10:46:06.209Z,57.30
2023-02-07T10:48:38.287Z,48.30
2023-02-07T10:51:16.391Z,45.80
2023-02-07T10:53:54.946Z,46.00
2023-02-07T10:56:28.096Z,44.60
2023-02-07T10:58:59.808Z,47.90
2023-02-07T11:01:31.536Z,46.50
2023-02-07T11:04:03.255Z,46.60
2023-02-07T11:06:36.103Z,43.70
2023-02-07T11:09:14.331Z,52.70
2023-02-07T11:11:48.669Z,53.50
2023-02-07T11:14:26.890Z,50.70
2023-02-07T11:16:58.776Z,48.70
2023-02-07T11:19:31.359Z,53.80
2023-02-07T11:22:10.276Z,51.80
2023-02-07T11:24:41.879Z,52.70
2023-02-07T11:27:15.966Z,55.70
2023-02-07T11:29:48.823Z,60.10
2023-02-07T11:32:20.688Z,50.30
2023-02-07T11:34:53.682Z,51.40
2023-02-07T11:37:26.608Z,55.10
2023-02-07T11:39:58.684Z,56.80
2023-02-07T11:42:32.359Z,52.20
2023-02-07T11:45:06.804Z,58.00
2023-02-07T11:47:38.667Z,54.40
2023-02-07T11:50:13.489Z,61.50
2023-02-07T11:52:51.347Z,67.90
2023-02-07T11:55:23.838Z,52.60
2023-02-07T11:57:57.941Z,59.40
2023-02-07T12:00:30.867Z,54.40
2023-02-07T12:03:03.108Z,57.20
2023-02-07T12:05:37.012Z,51.10
2023-02-07T12:08:11.595Z,67.60
2023-02-07T12:10:47.383Z,62.10
2023-02-07T12:13:20.273Z,71.40
2023-02-07T12:15:53.217Z,66.80
2023-02-07T12:18:28.220Z,75.50
2023-02-07T12:21:03.878Z,65.20
2023-02-07T12:23:42.677Z,57.10
2023-02-07T12:26:19.600Z,63.00
2023-02-07T12:29:04.021Z,57.30
2023-02-07T12:31:48.247Z,64.20
2023-02-07T12:34:24.401Z,64.20
2023-02-07T12:37:00.402Z,64.00
2023-02-07T12:39:36.330Z,70.00
2023-02-07T12:42:17.841Z,68.70
2023-02-07T12:44:51.503Z,64.00
2023-02-07T12:47:27.206Z,66.80
2023-02-07T12:50:04.365Z,67.70
2023-02-07T12:52:41.555Z,66.80
2023-02-07T12:55:18.394Z,69.10
2023-02-07T12:57:53.745Z,66.20
2023-02-07T13:00:26.939Z,71.10
2023-02-07T13:05:41.093Z,65.00
2023-02-07T13:08:18.789Z,55.40
2023-02-07T13:10:54.084Z,63.60
2023-02-07T13:13:28.543Z,62.00
2023-02-07T13:16:02.859Z,70.40
2023-02-07T13:18:38.019Z,64.80
2023-02-07T13:21:12.113Z,57.20
2023-02-07T13:23:45.388Z,72.30
2023-02-07T13:26:20.123Z,66.60
2023-02-07T13:28:53.619Z,68.30
2023-02-07T13:33:55.133Z,66.10
2023-02-07T13:36:31.442Z,63.50
2023-02-07T13:39:09.310Z,68.00
2023-02-07T13:41:45.016Z,64.90
2023-02-07T13:44:21.501Z,68.30
2023-02-07T13:46:56.947Z,64.00
2023-02-07T13:49:36.471Z,68.50
2023-02-07T13:52:11.868Z,67.90
2023-02-07T13:54:45.527Z,63.60
2023-02-07T13:57:40.765Z,66.00
2023-02-07T14:00:22.231Z,66.30
2023-02-07T14:02:53.946Z,66.50
2023-02-07T14:05:27.222Z,65.40
2023-02-07T14:07:59.060Z,65.50
2023-02-07T14:10:49.541Z,66.30
2023-02-07T14:13:29.972Z,61.70
2023-02-07T14:16:06.445Z,64.10
2023-02-07T14:18:47.433Z,67.30
2023-02-07T14:21:31.288Z,69.10
2023-02-07T14:27:00.094Z,61.90
2023-02-07T14:29:52.580Z,63.70
2023-02-07T14:32:39.387Z,63.30
2023-02-07T14:35:23.652Z,70.80
2023-02-07T14:37:57.243Z,68.20
2023-02-07T14:40:33.112Z,64.40
2023-02-07T14:43:06.320Z,69.80
2023-02-07T14:45:38.241Z,72.10
2023-02-07T14:48:29.767Z,70.40
2023-02-07T14:51:00.501Z,63.40
2023-02-07T14:53:33.592Z,69.50
2023-02-07T14:56:05.757Z,81.10
2023-02-07T14:58:38.453Z,79.60
2023-02-07T15:01:13.822Z,76.10
2023-02-07T15:03:45.989Z,82.00
2023-02-07T15:06:30.798Z,82.00
2023-02-07T15:09:04.007Z,81.60
2023-02-07T15:11:40.692Z,74.70
2023-02-07T15:14:21.531Z,85.00
2023-02-07T15:16:52.075Z,80.70
2023-02-07T15:19:24.906Z,78.50
2023-02-07T15:21:55.788Z,79.80
2023-02-07T15:24:28.924Z,77.20
2023-02-07T15:27:00.383Z,77.70
2023-02-07T15:29:32.948Z,81.30
2023-02-07T15:32:12.867Z,89.80
2023-02-07T15:34:46.512Z,81.20
2023-02-07T15:37:20.576Z,84.10
2023-02-07T15:39:53.056Z,81.70
2023-02-07T15:42:24.180Z,83.90
2023-02-07T15:44:57.018Z,84.20
2023-02-07T15:47:36.915Z,88.00
2023-02-07T15:50:09.577Z,90.40
2023-02-07T15:52:41.634Z,85.20
2023-02-07T15:55:18.897Z,83.30
2023-02-07T15:57:49.878Z,83.60
2023-02-07T16:00:23.109Z,82.20
2023-02-07T16:02:59.204Z,89.20
2023-02-07T16:05:31.920Z,81.30
2023-02-07T16:08:03.240Z,82.60
2023-02-07T16:10:36.040Z,84.00
2023-02-07T16:13:12.176Z,78.10
2023-02-07T16:15:54.260Z,87.00
2023-02-07T16:18:38.593Z,93.70
2023-02-07T16:21:14.338Z,77.50
2023-02-07T16:23:45.371Z,84.40
2023-02-07T16:26:17.738Z,86.10
2023-02-07T16:28:48.876Z,89.30
2023-02-07T16:31:20.762Z,87.90
2023-02-07T16:33:51.860Z,82.90
2023-02-07T16:36:23.490Z,83.40
2023-02-07T16:38:53.939Z,89.10
2023-02-07T16:41:32.332Z,82.80
2023-02-07T16:44:03.713Z,83.80
2023-02-07T16:46:35.976Z,86.10
2023-02-07T16:49:11.438Z,90.10
2023-02-07T16:51:42.738Z,85.70
2023-02-07T16:54:13.391Z,84.20
2023-02-07T16:56:45.198Z,80.10
2023-02-07T16:59:18.360Z,80.40
2023-02-07T17:01:51.495Z,83.80
2023-02-07T17:04:22.577Z,81.90
2023-02-07T17:06:53.789Z,85.30
2023-02-07T17:09:25.699Z,77.90
2023-02-07T17:11:57.133Z,90.80
2023-02-07T17:14:28.724Z,80.20
2023-02-07T17:17:00.140Z,81.50
2023-02-07T17:19:31.068Z,84.90
2023-02-07T17:22:02.512Z,83.60
2023-02-07T17:24:33.154Z,87.20
2023-02-07T17:27:04.601Z,83.70
2023-02-07T17:29:35.120Z,77.80
2023-02-07T17:32:06.740Z,80.90
2023-02-07T17:34:37.610Z,80.40
2023-02-07T17:37:11.974Z,83.00
2023-02-07T17:39:42.453Z,84.30
2023-02-07T17:42:13.820Z,85.30
2023-02-07T17:44:44.640Z,83.90
2023-02-07T17:47:16.301Z,84.40
2023-02-07T17:49:47.120Z,89.10
2023-02-07T17:52:18.785Z,83.30
2023-02-07T17:54:49.610Z,81.80
2023-02-07T17:57:21.268Z,85.20
2023-02-07T17:59:51.794Z,88.60
2023-02-07T18:02:23.277Z,87.30
2023-02-07T18:04:54.143Z,87.40
2023-02-07T18:07:27.370Z,85.30
2023-02-07T18:09:57.902Z,86.30
2023-02-07T18:12:30.581Z,85.00
2023-02-07T18:15:01.110Z,86.10
2023-02-07T18:17:32.771Z,87.50
2023-02-07T18:20:03.332Z,94.40
2023-02-07T18:22:34.442Z,86.20
2023-02-07T18:25:05.002Z,84.10
2023-02-07T18:27:37.110Z,86.50
2023-02-07T18:30:08.909Z,94.50
2023-02-07T18:32:40.282Z,85.50
2023-02-07T18:35:11.630Z,83.20
2023-02-07T18:37:42.831Z,88.80
2023-02-07T18:40:15.943Z,93.10
2023-02-07T18:42:47.086Z,89.10
2023-02-07T18:45:17.758Z,90.10
2023-02-07T18:47:49.928Z,88.00
2023-02-07T18:50:20.695Z,88.70
2023-02-07T18:52:51.740Z,89.70
2023-02-07T18:55:22.272Z,88.80
2023-02-07T18:57:55.386Z,93.40
2023-02-07T19:00:26.178Z,81.80
2023-02-07T19:02:57.241Z,88.10
2023-02-07T19:05:27.854Z,88.50
2023-02-07T19:07:59.346Z,91.10
2023-02-07T19:10:29.857Z,89.20
2023-02-07T19:13:01.223Z,93.60
2023-02-07T19:15:31.852Z,87.90
2023-02-07T19:18:05.674Z,85.40
2023-02-07T19:23:05.863Z,85.40
2023-02-07T19:25:36.720Z,93.70
2023-02-07T19:28:07.732Z,90.30
2023-02-07T19:30:42.616Z,83.80
2023-02-07T19:33:13.600Z,82.00
2023-02-07T19:35:44.235Z,84.20
2023-02-07T19:38:15.887Z,87.40
2023-02-07T19:40:46.650Z,91.90
2023-02-07T19:43:17.662Z,93.80
2023-02-07T19:45:49.643Z,86.10
2023-02-07T19:48:20.556Z,90.00
2023-02-07T19:50:58.321Z,89.50
2023-02-07T19:53:30.422Z,88.30
2023-02-07T19:56:03.555Z,88.00
2023-02-07T19:58:35.182Z,92.20
2023-02-07T20:01:06.340Z,96.90
2023-02-07T20:03:38.576Z,90.60
2023-02-07T20:06:12.282Z,82.80
2023-02-07T20:08:43.633Z,87.40
2023-02-07T20:11:14.886Z,93.20
2023-02-07T20:13:46.733Z,90.80
2023-02-07T20:16:18.741Z,85.90
2023-02-07T20:18:49.943Z,91.60
2023-02-07T20:21:22.150Z,98.40
2023-02-07T20:23:53.837Z,97.70
2023-02-07T20:26:25.740Z,86.50
2023-02-07T20:28:57.433Z,91.10
2023-02-07T20:31:29.520Z,91.40
2023-02-07T20:34:02.211Z,87.50
2023-02-07T20:36:33.843Z,86.60
2023-02-07T20:39:05.583Z,88.60
2023-02-07T20:41:41.471Z,85.10
2023-02-07T20:44:15.655Z,95.40
2023-02-07T20:46:47.255Z,88.90
2023-02-07T20:49:20.083Z,87.30
2023-02-07T20:51:52.043Z,85.80
2023-02-07T20:54:24.372Z,90.60
2023-02-07T20:56:55.662Z,89.70
2023-02-07T20:59:27.864Z,92.10
2023-02-07T21:01:59.036Z,90.50
2023-02-07T21:04:30.817Z,93.60
2023-02-07T21:07:02.002Z,90.70
2023-02-07T21:09:33.584Z,87.90
2023-02-07T21:12:05.549Z,94.20
2023-02-07T21:14:37.817Z,97.30
2023-02-07T21:17:08.874Z,87.60
2023-02-07T21:19:41.121Z,83.80
2023-02-07T21:22:11.862Z,93.00
2023-02-07T21:24:43.851Z,93.20
2023-02-07T21:27:14.346Z,93.50
2023-02-07T21:29:45.600Z,95.30
2023-02-07T21:32:16.327Z,90.70
2023-02-07T21:34:49.101Z,91.80
2023-02-07T21:37:21.176Z,94.80
2023-02-07T21:39:52.606Z,88.30
2023-02-07T21:42:23.453Z,94.30
2023-02-07T21:44:54.388Z,96.30
2023-02-07T21:47:25.429Z,95.20
2023-02-07T21:49:56.627Z,99.10
2023-02-07T21:52:27.237Z,91.40
2023-02-07T21:54:59.067Z,97.70
2023-02-07T21:57:29.906Z,97.10
2023-02-07T22:00:01.365Z,98.90
2023-02-07T22:02:32.063Z,94.50
2023-02-07T22:05:03.710Z,100.30
2023-02-07T22:07:34.486Z,96.70
2023-02-07T22:10:05.956Z,96.30
2023-02-07T22:12:36.861Z,95.70
2023-02-07T22:15:08.460Z,97.90
2023-02-07T22:17:39.352Z,97.40
2023-02-07T22:20:11.650Z,96.30
2023-02-07T22:22:42.364Z,101.00
2023-02-07T22:25:13.515Z,101.10
2023-02-07T22:27:44.129Z,102.30
2023-02-07T22:30:15.356Z,94.70
2023-02-07T22:32:45.938Z,97.50
2023-02-07T22:35:16.711Z,103.90
2023-02-07T22:37:51.882Z,100.40
2023-02-07T22:40:22.813Z,101.00
2023-02-07T22:42:53.411Z,97.30
2023-02-07T22:45:24.180Z,99.60
2023-02-07T22:47:54.808Z,103.90
2023-02-07T22:50:25.647Z,96.50
2023-02-07T22:52:56.062Z,97.20
2023-02-07T22:55:27.477Z,97.10
2023-02-07T22:57:58.137Z,101.70
2023-02-07T23:00:29.863Z,100.10
2023-02-07T23:03:01.189Z,96.90
2023-02-07T23:05:32.633Z,96.90
2023-02-07T23:08:03.446Z,97.60
2023-02-07T23:10:34.467Z,101.40
2023-02-07T23:13:06.122Z,103.40
2023-02-07T23:15:37.923Z,95.60
2023-02-07T23:18:08.419Z,95.90
2023-02-07T23:20:40.213Z,103.00
2023-02-07T23:23:10.999Z,98.10
2023-02-07T23:25:44.946Z,93.70
2023-02-07T23:28:15.607Z,96.00
2023-02-07T23:30:47.410Z,94.70
2023-02-07T23:33:17.986Z,99.50
2023-02-07T23:35:49.023Z,97.60
2023-02-07T23:38:19.713Z,96.40
2023-02-07T23:40:50.997Z,98.00
2023-02-07T23:43:21.860Z,95.00
2023-02-07T23:45:53.330Z,97.70
2023-02-07T23:48:24.076Z,98.50
2023-02-07T23:50:55.983Z,96.50
2023-02-07T23:53:27.218Z,92.40
2023-02-07T23:55:58.827Z,92.00
2023-02-07T23:58:29.309Z,93.60
